Аэропорт: Талаги. Архангельск

ICAO: ULAA

METAR:
2021-07-28 12:30:00
ULAA 281230Z 28005MPS 250V330 9999 SCT020 23/13 Q1008 R26/CLRD70 NOSIG RMK QFE754/1006
METAR:
2021-07-28 11:00:00
TAF ULAA 281100Z 2812/2912 27006MPS 9999 BKN017 TEMPO 2812/2820 23005MPS 6000 -SHRA SCT016CB FM282000 15003MPS 6000 SCT016 TEMPO 2820/2903 VRB01MPS 0300 FG FEW003